sensor_id;sensor_type;location;lat;lon;timestamp;pressure;altitude;pressure_sealevel;temperature;humidity
29877;BME280;16750;49.002;9.204;2022-08-03T00:02:12;99324.00;;;18.53;100.00
29877;BME280;16750;49.002;9.204;2022-08-03T00:04:37;99324.94;;;18.58;100.00
29877;BME280;16750;49.002;9.204;2022-08-03T00:07:02;99356.25;;;18.81;100.00
29877;BME280;16750;49.002;9.204;2022-08-03T00:09:28;99368.56;;;18.79;100.00
29877;BME280;16750;49.002;9.204;2022-08-03T00:11:55;99358.75;;;18.73;100.00
29877;BME280;16750;49.002;9.204;2022-08-03T00:14:20;99362.00;;;18.60;100.00
29877;BME280;16750;49.002;9.204;2022-08-03T00:16:46;99368.97;;;18.56;100.00
29877;BME280;16750;49.002;9.204;2022-08-03T00:19:11;99350.25;;;18.45;100.00
29877;BME280;16750;49.002;9.204;2022-08-03T00:21:36;99364.53;;;18.53;100.00
29877;BME280;16750;49.002;9.204;2022-08-03T00:24:02;99331.66;;;18.39;100.00
29877;BME280;16750;49.002;9.204;2022-08-03T00:26:28;99358.28;;;18.50;100.00
29877;BME280;16750;49.002;9.204;2022-08-03T00:28:53;99335.09;;;18.35;100.00
29877;BME280;16750;49.002;9.204;2022-08-03T00:31:18;99360.72;;;18.39;100.00
29877;BME280;16750;49.002;9.204;2022-08-03T00:33:44;99360.72;;;18.38;100.00
29877;BME280;16750;49.002;9.204;2022-08-03T00:36:09;99328.66;;;18.22;100.00
29877;BME280;16750;49.002;9.204;2022-08-03T00:38:34;99358.94;;;18.38;100.00
29877;BME280;16750;49.002;9.204;2022-08-03T00:41:00;99357.13;;;18.35;100.00
29877;BME280;16750;49.002;9.204;2022-08-03T00:43:25;99336.56;;;18.21;100.00
29877;BME280;16750;49.002;9.204;2022-08-03T00:45:52;99353.53;;;18.32;100.00
29877;BME280;16750;49.002;9.204;2022-08-03T00:48:19;99363.22;;;18.33;100.00
29877;BME280;16750;49.002;9.204;2022-08-03T00:50:45;99350.84;;;18.30;100.00
29877;BME280;16750;49.002;9.204;2022-08-03T00:53:12;99352.53;;;18.27;100.00
29877;BME280;16750;49.002;9.204;2022-08-03T00:55:39;99354.34;;;18.28;100.00
29877;BME280;16750;49.002;9.204;2022-08-03T00:58:06;99319.41;;;18.00;100.00
29877;BME280;16750;49.002;9.204;2022-08-03T01:00:34;99334.50;;;18.06;100.00
29877;BME280;16750;49.002;9.204;2022-08-03T01:03:07;99357.69;;;18.19;100.00
29877;BME280;16750;49.002;9.204;2022-08-03T01:11:29;99349.88;;;18.25;100.00
29877;BME280;16750;49.002;9.204;2022-08-03T01:14:03;99346.03;;;18.09;100.00
29877;BME280;16750;49.002;9.204;2022-08-03T01:16:47;99355.75;;;18.12;100.00
29877;BME280;16750;49.002;9.204;2022-08-03T01:19:32;99349.59;;;18.11;100.00
29877;BME280;16750;49.002;9.204;2022-08-03T01:27:25;99346.50;;;17.91;100.00
29877;BME280;16750;49.002;9.204;2022-08-03T01:32:33;99337.56;;;17.85;100.00
29877;BME280;16750;49.002;9.204;2022-08-03T01:35:07;99327.69;;;17.76;100.00
29877;BME280;16750;49.002;9.204;2022-08-03T01:37:41;99339.13;;;17.77;100.00
29877;BME280;16750;49.002;9.204;2022-08-03T01:40:09;99332.78;;;17.68;100.00
29877;BME280;16750;49.002;9.204;2022-08-03T01:42:39;99338.09;;;17.70;100.00
29877;BME280;16750;49.002;9.204;2022-08-03T01:45:06;99315.63;;;17.49;100.00
29877;BME280;16750;49.002;9.204;2022-08-03T01:47:33;99321.78;;;17.50;100.00
29877;BME280;16750;49.002;9.204;2022-08-03T01:50:00;99321.19;;;17.62;100.00
29877;BME280;16750;49.002;9.204;2022-08-03T01:52:26;99331.88;;;17.68;100.00
29877;BME280;16750;49.002;9.204;2022-08-03T01:54:53;99331.03;;;17.69;100.00
29877;BME280;16750;49.002;9.204;2022-08-03T01:57:20;99325.63;;;17.64;100.00
29877;BME280;16750;49.002;9.204;2022-08-03T01:59:48;99289.09;;;17.43;100.00
29877;BME280;16750;49.002;9.204;2022-08-03T02:02:15;99332.63;;;17.62;100.00
29877;BME280;16750;49.002;9.204;2022-08-03T02:04:46;99321.97;;;17.58;100.00
29877;BME280;16750;49.002;9.204;2022-08-03T02:07:14;99325.31;;;17.49;100.00
29877;BME280;16750;49.002;9.204;2022-08-03T02:09:41;99312.59;;;17.32;100.00
29877;BME280;16750;49.002;9.204;2022-08-03T02:12:11;99317.00;;;17.33;100.00
29877;BME280;16750;49.002;9.204;2022-08-03T02:14:39;99285.78;;;17.14;100.00
29877;BME280;16750;49.002;9.204;2022-08-03T02:17:08;99326.75;;;17.36;100.00
29877;BME280;16750;49.002;9.204;2022-08-03T02:19:34;99335.34;;;17.27;100.00
29877;BME280;16750;49.002;9.204;2022-08-03T02:22:01;99325.50;;;17.22;100.00
29877;BME280;16750;49.002;9.204;2022-08-03T02:24:28;99329.06;;;17.22;100.00
29877;BME280;16750;49.002;9.204;2022-08-03T02:26:55;99333.50;;;17.25;100.00
29877;BME280;16750;49.002;9.204;2022-08-03T02:29:24;99331.56;;;17.18;100.00
29877;BME280;16750;49.002;9.204;2022-08-03T02:31:51;99331.63;;;17.19;100.00
29877;BME280;16750;49.002;9.204;2022-08-03T02:34:17;99331.66;;;17.21;100.00
29877;BME280;16750;49.002;9.204;2022-08-03T02:36:48;99324.63;;;17.21;100.00
29877;BME280;16750;49.002;9.204;2022-08-03T02:39:16;99327.22;;;17.20;100.00
29877;BME280;16750;49.002;9.204;2022-08-03T02:41:48;99278.16;;;16.90;100.00
29877;BME280;16750;49.002;9.204;2022-08-03T02:44:16;99320.13;;;17.17;100.00
29877;BME280;16750;49.002;9.204;2022-08-03T02:46:44;99317.44;;;17.14;100.00
29877;BME280;16750;49.002;9.204;2022-08-03T02:49:12;99319.09;;;17.10;100.00
29877;BME280;16750;49.002;9.204;2022-08-03T02:51:38;99321.66;;;17.07;100.00
29877;BME280;16750;49.002;9.204;2022-08-03T02:54:06;99316.97;;;16.96;100.00
29877;BME280;16750;49.002;9.204;2022-08-03T02:56:34;99322.25;;;16.96;100.00
29877;BME280;16750;49.002;9.204;2022-08-03T02:59:02;99320.44;;;16.94;100.00
29877;BME280;16750;49.002;9.204;2022-08-03T03:01:29;99325.72;;;16.94;100.00
29877;BME280;16750;49.002;9.204;2022-08-03T03:03:56;99305.25;;;16.84;100.00
29877;BME280;16750;49.002;9.204;2022-08-03T03:06:24;99323.06;;;16.93;100.00
29877;BME280;16750;49.002;9.204;2022-08-03T03:08:51;99314.25;;;16.92;100.00
29877;BME280;16750;49.002;9.204;2022-08-03T03:11:18;99274.81;;;16.62;100.00
29877;BME280;16750;49.002;9.204;2022-08-03T03:13:45;99327.38;;;16.89;100.00
29877;BME280;16750;49.002;9.204;2022-08-03T03:16:12;99254.34;;;16.53;100.00
29877;BME280;16750;49.002;9.204;2022-08-03T03:18:39;99319.25;;;16.82;100.00
29877;BME280;16750;49.002;9.204;2022-08-03T03:21:06;99326.09;;;16.75;100.00
29877;BME280;16750;49.002;9.204;2022-08-03T03:23:35;99323.34;;;16.72;100.00
29877;BME280;16750;49.002;9.204;2022-08-03T03:26:02;99321.41;;;16.65;100.00
29877;BME280;16750;49.002;9.204;2022-08-03T03:28:28;99320.44;;;16.61;100.00
29877;BME280;16750;49.002;9.204;2022-08-03T03:30:55;99320.56;;;16.66;100.00
29877;BME280;16750;49.002;9.204;2022-08-03T03:33:21;99299.28;;;16.58;100.00
29877;BME280;16750;49.002;9.204;2022-08-03T03:35:47;99311.97;;;16.73;100.00
29877;BME280;16750;49.002;9.204;2022-08-03T03:38:12;99296.59;;;16.57;100.00
29877;BME280;16750;49.002;9.204;2022-08-03T03:40:38;99311.47;;;16.54;100.00
29877;BME280;16750;49.002;9.204;2022-08-03T03:43:07;99315.06;;;16.57;100.00
29877;BME280;16750;49.002;9.204;2022-08-03T03:45:34;99314.34;;;16.62;100.00
29877;BME280;16750;49.002;9.204;2022-08-03T03:48:00;99321.16;;;16.55;100.00
29877;BME280;16750;49.002;9.204;2022-08-03T03:50:27;99316.63;;;16.50;100.00
29877;BME280;16750;49.002;9.204;2022-08-03T03:52:52;99300.50;;;16.38;100.00
29877;BME280;16750;49.002;9.204;2022-08-03T03:55:18;99313.91;;;16.47;100.00
29877;BME280;16750;49.002;9.204;2022-08-03T03:57:43;99315.06;;;16.57;100.00
29877;BME280;16750;49.002;9.204;2022-08-03T04:00:11;99305.34;;;16.55;100.00
29877;BME280;16750;49.002;9.204;2022-08-03T04:02:38;99321.25;;;16.59;100.00
29877;BME280;16750;49.002;9.204;2022-08-03T04:05:03;99322.19;;;16.61;100.00
29877;BME280;16750;49.002;9.204;2022-08-03T04:07:57;99318.72;;;16.63;100.00
29877;BME280;16750;49.002;9.204;2022-08-03T04:10:46;99316.97;;;16.64;100.00
29877;BME280;16750;49.002;9.204;2022-08-03T04:13:34;99323.84;;;16.57;100.00
29877;BME280;16750;49.002;9.204;2022-08-03T04:16:02;99323.94;;;16.60;100.00
29877;BME280;16750;49.002;9.204;2022-08-03T04:18:29;99324.81;;;16.61;100.00
29877;BME280;16750;49.002;9.204;2022-08-03T04:20:59;99316.97;;;16.64;100.00
29877;BME280;16750;49.002;9.204;2022-08-03T04:23:27;99322.47;;;16.71;100.00
29877;BME280;16750;49.002;9.204;2022-08-03T04:25:55;99309.06;;;16.64;100.00
29877;BME280;16750;49.002;9.204;2022-08-03T04:28:22;99303.78;;;16.62;100.00
29877;BME280;16750;49.002;9.204;2022-08-03T04:30:48;99328.84;;;16.80;100.00
29877;BME280;16750;49.002;9.204;2022-08-03T04:33:16;99307.59;;;16.73;100.00
29877;BME280;16750;49.002;9.204;2022-08-03T04:35:45;99313.97;;;16.82;100.00
29877;BME280;16750;49.002;9.204;2022-08-03T04:38:13;99330.94;;;16.91;100.00
29877;BME280;16750;49.002;9.204;2022-08-03T04:40:41;99328.47;;;16.98;100.00
29877;BME280;16750;49.002;9.204;2022-08-03T04:43:09;99334.75;;;17.04;100.00
29877;BME280;16750;49.002;9.204;2022-08-03T04:45:36;99303.59;;;16.88;100.00
29877;BME280;16750;49.002;9.204;2022-08-03T04:48:03;99341.91;;;17.08;100.00
29877;BME280;16750;49.002;9.204;2022-08-03T04:50:29;99300.13;;;16.90;100.00
29877;BME280;16750;49.002;9.204;2022-08-03T04:53:06;99346.72;;;17.25;100.00
29877;BME280;16750;49.002;9.204;2022-08-03T04:55:33;99347.06;;;17.40;100.00
29877;BME280;16750;49.002;9.204;2022-08-03T04:58:00;99349.50;;;17.69;100.00
29877;BME280;16750;49.002;9.204;2022-08-03T05:00:26;99345.13;;;17.69;100.00
29877;BME280;16750;49.002;9.204;2022-08-03T05:02:52;99327.22;;;17.56;100.00
29877;BME280;16750;49.002;9.204;2022-08-03T05:05:18;99349.44;;;17.66;100.00
29877;BME280;16750;49.002;9.204;2022-08-03T05:07:44;99352.13;;;17.67;100.00
29877;BME280;16750;49.002;9.204;2022-08-03T05:10:11;99321.16;;;18.42;100.00
29877;BME280;16750;49.002;9.204;2022-08-03T05:12:36;99345.53;;;19.80;100.00
29877;BME280;16750;49.002;9.204;2022-08-03T05:15:03;99341.69;;;20.20;100.00
29877;BME280;16750;49.002;9.204;2022-08-03T05:17:28;99335.38;;;20.12;100.00
29877;BME280;16750;49.002;9.204;2022-08-03T05:19:54;99343.91;;;19.88;100.00
29877;BME280;16750;49.002;9.204;2022-08-03T05:22:21;99334.44;;;19.46;100.00
29877;BME280;16750;49.002;9.204;2022-08-03T05:24:46;99350.94;;;19.29;100.00
29877;BME280;16750;49.002;9.204;2022-08-03T05:27:12;99352.38;;;19.12;100.00
29877;BME280;16750;49.002;9.204;2022-08-03T05:29:44;99359.38;;;19.07;100.00
29877;BME280;16750;49.002;9.204;2022-08-03T05:32:10;99351.41;;;19.05;100.00
29877;BME280;16750;49.002;9.204;2022-08-03T05:34:35;99340.72;;;18.99;100.00
29877;BME280;16750;49.002;9.204;2022-08-03T05:37:01;99351.47;;;19.08;100.00
29877;BME280;16750;49.002;9.204;2022-08-03T05:39:26;99352.47;;;19.15;100.00
29877;BME280;16750;49.002;9.204;2022-08-03T05:41:51;99352.66;;;19.27;100.00
29877;BME280;16750;49.002;9.204;2022-08-03T05:44:17;99362.59;;;19.42;100.00
29877;BME280;16750;49.002;9.204;2022-08-03T05:46:42;99363.69;;;19.53;100.00
29877;BME280;16750;49.002;9.204;2022-08-03T05:49:08;99362.94;;;19.62;100.00
29877;BME280;16750;49.002;9.204;2022-08-03T05:51:33;99365.81;;;19.78;100.00
29877;BME280;16750;49.002;9.204;2022-08-03T05:53:59;99360.69;;;19.87;100.00
29877;BME280;16750;49.002;9.204;2022-08-03T05:56:25;99334.09;;;19.82;100.00
29877;BME280;16750;49.002;9.204;2022-08-03T05:58:50;99356.53;;;20.09;100.00
29877;BME280;16750;49.002;9.204;2022-08-03T06:01:17;99329.13;;;20.07;100.00
29877;BME280;16750;49.002;9.204;2022-08-03T06:03:43;99363.00;;;20.31;100.00
29877;BME280;16750;49.002;9.204;2022-08-03T06:06:09;99342.75;;;20.38;100.00
29877;BME280;16750;49.002;9.204;2022-08-03T06:08:35;99350.88;;;20.51;100.00
29877;BME280;16750;49.002;9.204;2022-08-03T06:11:02;99311.91;;;20.43;100.00
29877;BME280;16750;49.002;9.204;2022-08-03T06:13:27;99351.25;;;20.85;100.00
29877;BME280;16750;49.002;9.204;2022-08-03T06:15:53;99362.97;;;21.07;100.00
29877;BME280;16750;49.002;9.204;2022-08-03T06:18:19;99354.31;;;21.25;100.00
29877;BME280;16750;49.002;9.204;2022-08-03T06:20:44;99354.41;;;21.41;99.30
29877;BME280;16750;49.002;9.204;2022-08-03T06:23:10;99339.34;;;21.41;98.46
29877;BME280;16750;49.002;9.204;2022-08-03T06:25:35;99345.75;;;21.60;96.05
29877;BME280;16750;49.002;9.204;2022-08-03T06:28:00;99341.41;;;21.76;94.82
29877;BME280;16750;49.002;9.204;2022-08-03T06:30:26;99357.53;;;22.04;92.11
29877;BME280;16750;49.002;9.204;2022-08-03T06:32:51;99345.16;;;22.15;89.67
29877;BME280;16750;49.002;9.204;2022-08-03T06:35:17;99353.22;;;22.24;89.49
29877;BME280;16750;49.002;9.204;2022-08-03T06:37:47;99350.59;;;22.43;88.15
29877;BME280;16750;49.002;9.204;2022-08-03T06:40:15;99353.28;;;22.49;87.74
29877;BME280;16750;49.002;9.204;2022-08-03T06:42:41;99302.72;;;22.33;85.47
29877;BME280;16750;49.002;9.204;2022-08-03T06:45:07;99352.47;;;22.71;84.33
29877;BME280;16750;49.002;9.204;2022-08-03T06:47:36;99351.63;;;22.91;83.90
29877;BME280;16750;49.002;9.204;2022-08-03T06:50:04;99312.59;;;22.87;82.35
29877;BME280;16750;49.002;9.204;2022-08-03T06:52:30;99321.53;;;23.07;81.10
29877;BME280;16750;49.002;9.204;2022-08-03T06:54:56;99309.09;;;23.20;81.00
29877;BME280;16750;49.002;9.204;2022-08-03T06:57:21;99341.03;;;23.51;79.94
29877;BME280;16750;49.002;9.204;2022-08-03T06:59:47;99345.41;;;23.75;78.85
29877;BME280;16750;49.002;9.204;2022-08-03T07:02:12;99341.00;;;23.85;78.34
29877;BME280;16750;49.002;9.204;2022-08-03T07:04:38;99353.38;;;24.07;76.94
29877;BME280;16750;49.002;9.204;2022-08-03T07:07:03;99361.31;;;24.24;76.26
29877;BME280;16750;49.002;9.204;2022-08-03T07:09:29;99363.03;;;24.36;75.14
29877;BME280;16750;49.002;9.204;2022-08-03T07:11:54;99345.22;;;24.44;74.08
29877;BME280;16750;49.002;9.204;2022-08-03T07:14:21;99351.41;;;24.57;73.19
29877;BME280;16750;49.002;9.204;2022-08-03T07:16:46;99356.72;;;24.65;72.78
29877;BME280;16750;49.002;9.204;2022-08-03T07:19:12;99354.84;;;24.79;71.45
29877;BME280;16750;49.002;9.204;2022-08-03T07:21:37;99349.41;;;24.96;71.21
29877;BME280;16750;49.002;9.204;2022-08-03T07:24:03;99336.88;;;25.04;70.00
29877;BME280;16750;49.002;9.204;2022-08-03T07:26:28;99353.66;;;25.26;68.59
29877;BME280;16750;49.002;9.204;2022-08-03T07:28:54;99350.91;;;25.39;68.15
29877;BME280;16750;49.002;9.204;2022-08-03T07:31:19;99348.94;;;25.56;66.44
29877;BME280;16750;49.002;9.204;2022-08-03T07:33:45;99352.38;;;25.70;66.16
29877;BME280;16750;49.002;9.204;2022-08-03T07:36:10;99356.66;;;25.87;65.45
29877;BME280;16750;49.002;9.204;2022-08-03T07:38:35;99347.72;;;25.91;64.67
29877;BME280;16750;49.002;9.204;2022-08-03T07:41:02;99337.03;;;25.92;65.00
29877;BME280;16750;49.002;9.204;2022-08-03T07:43:27;99323.53;;;26.00;64.43
29877;BME280;16750;49.002;9.204;2022-08-03T07:45:53;99351.66;;;26.33;63.31
29877;BME280;16750;49.002;9.204;2022-08-03T07:48:18;99316.94;;;26.32;61.98
29877;BME280;16750;49.002;9.204;2022-08-03T07:50:43;99348.69;;;26.61;61.47
29877;BME280;16750;49.002;9.204;2022-08-03T07:53:09;99317.44;;;26.62;61.25
29877;BME280;16750;49.002;9.204;2022-08-03T07:55:34;99352.59;;;26.97;60.03
29877;BME280;16750;49.002;9.204;2022-08-03T07:58:04;99342.53;;;27.15;59.47
29877;BME280;16750;49.002;9.204;2022-08-03T08:00:30;99332.69;;;27.14;58.37
29877;BME280;16750;49.002;9.204;2022-08-03T08:02:55;99328.16;;;27.21;59.42
29877;BME280;16750;49.002;9.204;2022-08-03T08:05:21;99345.56;;;27.48;58.23
29877;BME280;16750;49.002;9.204;2022-08-03T08:07:46;99328.53;;;27.52;57.73
29877;BME280;16750;49.002;9.204;2022-08-03T08:10:12;99337.94;;;27.74;57.03
29877;BME280;16750;49.002;9.204;2022-08-03T08:12:38;99337.94;;;27.74;57.35
29877;BME280;16750;49.002;9.204;2022-08-03T08:15:05;99337.84;;;27.81;57.03
29877;BME280;16750;49.002;9.204;2022-08-03T08:17:40;99332.09;;;28.01;56.32
29877;BME280;16750;49.002;9.204;2022-08-03T08:20:06;99340.72;;;28.16;55.52
29877;BME280;16750;49.002;9.204;2022-08-03T08:22:32;99336.19;;;28.20;55.22
29877;BME280;16750;49.002;9.204;2022-08-03T08:24:58;99337.66;;;28.35;55.72
29877;BME280;16750;49.002;9.204;2022-08-03T08:27:23;99345.28;;;28.56;55.10
29877;BME280;16750;49.002;9.204;2022-08-03T08:29:48;99343.00;;;28.78;53.38
29877;BME280;16750;49.002;9.204;2022-08-03T08:32:14;99335.66;;;28.87;52.64
29877;BME280;16750;49.002;9.204;2022-08-03T08:34:40;99340.06;;;28.89;52.48
29877;BME280;16750;49.002;9.204;2022-08-03T08:37:06;99335.34;;;29.01;52.46
29877;BME280;16750;49.002;9.204;2022-08-03T08:39:31;99330.47;;;29.16;51.79
29877;BME280;16750;49.002;9.204;2022-08-03T08:41:56;99332.78;;;29.33;51.42
29877;BME280;16750;49.002;9.204;2022-08-03T08:44:22;99333.03;;;29.57;50.92
29877;BME280;16750;49.002;9.204;2022-08-03T08:46:47;99332.63;;;29.74;50.32
29877;BME280;16750;49.002;9.204;2022-08-03T08:49:16;99298.63;;;29.71;48.98
29877;BME280;16750;49.002;9.204;2022-08-03T08:51:43;99332.75;;;30.02;48.75
29877;BME280;16750;49.002;9.204;2022-08-03T08:54:13;99328.06;;;30.09;48.56
29877;BME280;16750;49.002;9.204;2022-08-03T08:56:39;99283.50;;;29.98;47.71
29877;BME280;16750;49.002;9.204;2022-08-03T08:59:05;99323.75;;;30.34;47.31
29877;BME280;16750;49.002;9.204;2022-08-03T09:01:30;99306.63;;;30.37;46.71
29877;BME280;16750;49.002;9.204;2022-08-03T09:03:56;99306.16;;;30.52;46.16
29877;BME280;16750;49.002;9.204;2022-08-03T09:06:22;99318.34;;;30.66;45.85
29877;BME280;16750;49.002;9.204;2022-08-03T09:08:48;99330.44;;;30.81;45.50
29877;BME280;16750;49.002;9.204;2022-08-03T09:11:13;99330.91;;;30.95;45.01
29877;BME280;16750;49.002;9.204;2022-08-03T09:13:38;99273.19;;;30.72;43.86
29877;BME280;16750;49.002;9.204;2022-08-03T09:18:36;99320.78;;;31.30;42.86
29877;BME280;16750;49.002;9.204;2022-08-03T09:21:13;99325.31;;;31.54;42.10
29877;BME280;16750;49.002;9.204;2022-08-03T09:23:50;99327.56;;;31.68;41.90
29877;BME280;16750;49.002;9.204;2022-08-03T09:26:20;99324.53;;;31.77;40.28
29877;BME280;16750;49.002;9.204;2022-08-03T09:28:56;99322.72;;;31.78;40.20
29877;BME280;16750;49.002;9.204;2022-08-03T09:31:48;99321.19;;;31.96;39.53
29877;BME280;16750;49.002;9.204;2022-08-03T09:34:24;99316.06;;;32.13;39.19
29877;BME280;16750;49.002;9.204;2022-08-03T09:36:49;99307.81;;;32.16;39.81
29877;BME280;16750;49.002;9.204;2022-08-03T09:39:17;99310.88;;;32.31;38.81
29877;BME280;16750;49.002;9.204;2022-08-03T09:41:48;99312.38;;;32.40;39.01
29877;BME280;16750;49.002;9.204;2022-08-03T09:44:39;99308.66;;;32.42;36.87
29877;BME280;16750;49.002;9.204;2022-08-03T09:47:09;99318.34;;;32.48;37.82
29877;BME280;16750;49.002;9.204;2022-08-03T09:49:36;99320.72;;;32.57;37.19
29877;BME280;16750;49.002;9.204;2022-08-03T09:52:12;99308.53;;;32.45;36.98
29877;BME280;16750;49.002;9.204;2022-08-03T09:54:38;99306.19;;;32.60;37.71
29877;BME280;16750;49.002;9.204;2022-08-03T09:57:03;99307.44;;;32.74;36.03
29877;BME280;16750;49.002;9.204;2022-08-03T09:59:30;99302.91;;;32.75;35.56
29877;BME280;16750;49.002;9.204;2022-08-03T10:01:57;99299.63;;;32.67;36.03
29877;BME280;16750;49.002;9.204;2022-08-03T10:04:24;99296.38;;;32.81;35.98
29877;BME280;16750;49.002;9.204;2022-08-03T10:07:05;99299.56;;;32.90;34.43
29877;BME280;16750;49.002;9.204;2022-08-03T10:09:30;99300.75;;;33.05;35.19
29877;BME280;16750;49.002;9.204;2022-08-03T10:11:56;99297.50;;;33.19;35.65
29877;BME280;16750;49.002;9.204;2022-08-03T10:14:22;99291.38;;;33.36;35.57
29877;BME280;16750;49.002;9.204;2022-08-03T10:16:48;99297.88;;;33.52;34.99
29877;BME280;16750;49.002;9.204;2022-08-03T10:19:14;99292.00;;;33.63;35.21
29877;BME280;16750;49.002;9.204;2022-08-03T10:21:47;99282.47;;;33.75;34.76
29877;BME280;16750;49.002;9.204;2022-08-03T10:24:16;99272.13;;;33.64;34.67
29877;BME280;16750;49.002;9.204;2022-08-03T10:26:43;99286.41;;;33.68;35.11
29877;BME280;16750;49.002;9.204;2022-08-03T10:29:17;99284.84;;;33.62;34.72
29877;BME280;16750;49.002;9.204;2022-08-03T10:31:45;99273.06;;;33.63;35.50
29877;BME280;16750;49.002;9.204;2022-08-03T10:34:24;99279.50;;;33.81;34.43
29877;BME280;16750;49.002;9.204;2022-08-03T10:36:51;99278.69;;;33.79;34.67
29877;BME280;16750;49.002;9.204;2022-08-03T10:39:21;99275.50;;;33.69;35.22
29877;BME280;16750;49.002;9.204;2022-08-03T10:41:49;99277.53;;;33.85;34.54
29877;BME280;16750;49.002;9.204;2022-08-03T10:44:19;99269.69;;;33.79;33.93
29877;BME280;16750;49.002;9.204;2022-08-03T10:46:46;99262.06;;;33.68;35.11
29877;BME280;16750;49.002;9.204;2022-08-03T10:49:13;99264.94;;;33.63;34.50
29877;BME280;16750;49.002;9.204;2022-08-03T10:51:40;99260.53;;;33.81;34.14
29877;BME280;16750;49.002;9.204;2022-08-03T10:54:06;99257.84;;;34.00;34.23
29877;BME280;16750;49.002;9.204;2022-08-03T10:56:52;99265.31;;;34.15;35.01
29877;BME280;16750;49.002;9.204;2022-08-03T11:02:10;99239.44;;;34.27;34.02
29877;BME280;16750;49.002;9.204;2022-08-03T11:04:36;99259.59;;;34.60;33.67
29877;BME280;16750;49.002;9.204;2022-08-03T11:09:41;99258.44;;;34.46;33.27
29877;BME280;16750;49.002;9.204;2022-08-03T11:14:47;99248.53;;;34.64;33.68
29877;BME280;16750;49.002;9.204;2022-08-03T11:17:12;99241.34;;;34.63;33.89
29877;BME280;16750;49.002;9.204;2022-08-03T11:19:49;99255.19;;;34.76;32.91
29877;BME280;16750;49.002;9.204;2022-08-03T11:22:15;99254.47;;;34.72;33.59
29877;BME280;16750;49.002;9.204;2022-08-03T11:40:38;99242.94;;;35.04;31.98
29877;BME280;16750;49.002;9.204;2022-08-03T11:43:08;99241.97;;;34.87;32.26
29877;BME280;16750;49.002;9.204;2022-08-03T11:45:34;99234.47;;;34.75;32.52
29877;BME280;16750;49.002;9.204;2022-08-03T11:48:12;99219.53;;;34.66;32.71
29877;BME280;16750;49.002;9.204;2022-08-03T11:50:38;99211.88;;;34.74;32.15
29877;BME280;16750;49.002;9.204;2022-08-03T11:53:05;99217.19;;;34.95;32.45
29877;BME280;16750;49.002;9.204;2022-08-03T11:55:31;99237.91;;;35.15;31.54
29877;BME280;16750;49.002;9.204;2022-08-03T11:57:59;99232.09;;;35.23;31.21
29877;BME280;16750;49.002;9.204;2022-08-03T12:00:28;99226.19;;;35.14;30.81
29877;BME280;16750;49.002;9.204;2022-08-03T12:03:06;99226.34;;;35.10;31.58
29877;BME280;16750;49.002;9.204;2022-08-03T12:05:36;99206.50;;;35.09;31.87
29877;BME280;16750;49.002;9.204;2022-08-03T12:08:02;99201.75;;;35.14;31.08
29877;BME280;16750;49.002;9.204;2022-08-03T12:10:28;99218.72;;;35.01;31.01
29877;BME280;16750;49.002;9.204;2022-08-03T12:12:55;99212.16;;;35.05;31.41
29877;BME280;16750;49.002;9.204;2022-08-03T12:15:29;99201.34;;;35.22;31.56
29877;BME280;16750;49.002;9.204;2022-08-03T12:17:56;99213.00;;;35.24;31.37
29877;BME280;16750;49.002;9.204;2022-08-03T12:20:26;99201.50;;;35.19;30.66
29877;BME280;16750;49.002;9.204;2022-08-03T12:22:52;99206.66;;;35.06;31.76
29877;BME280;16750;49.002;9.204;2022-08-03T12:25:23;99203.97;;;35.06;31.41
29877;BME280;16750;49.002;9.204;2022-08-03T12:27:50;99209.16;;;35.28;31.34
29877;BME280;16750;49.002;9.204;2022-08-03T12:30:16;99202.69;;;35.48;30.35
29877;BME280;16750;49.002;9.204;2022-08-03T12:32:42;99208.16;;;35.64;30.41
29877;BME280;16750;49.002;9.204;2022-08-03T12:35:09;99204.19;;;35.71;30.45
29877;BME280;16750;49.002;9.204;2022-08-03T12:37:35;99205.94;;;35.72;30.20
29877;BME280;16750;49.002;9.204;2022-08-03T12:40:02;99201.22;;;35.76;30.13
29877;BME280;16750;49.002;9.204;2022-08-03T12:44:55;99201.25;;;35.92;30.17
29877;BME280;16750;49.002;9.204;2022-08-03T12:47:20;99195.25;;;35.69;30.57
29877;BME280;16750;49.002;9.204;2022-08-03T12:49:51;99199.00;;;35.67;30.20
29877;BME280;16750;49.002;9.204;2022-08-03T12:52:20;99186.84;;;35.56;30.42
29877;BME280;16750;49.002;9.204;2022-08-03T12:54:57;99190.84;;;35.67;30.79
29877;BME280;16750;49.002;9.204;2022-08-03T12:57:23;99196.34;;;35.83;30.51
29877;BME280;16750;49.002;9.204;2022-08-03T12:59:48;99164.72;;;35.64;29.91
29877;BME280;16750;49.002;9.204;2022-08-03T13:02:20;99184.41;;;35.85;30.06
29877;BME280;16750;49.002;9.204;2022-08-03T13:04:47;99174.78;;;35.95;30.33
29877;BME280;16750;49.002;9.204;2022-08-03T13:07:15;99173.38;;;36.04;30.22
29877;BME280;16750;49.002;9.204;2022-08-03T13:09:45;99186.41;;;36.15;29.34
29877;BME280;16750;49.002;9.204;2022-08-03T13:12:14;99181.25;;;35.77;29.32
29877;BME280;16750;49.002;9.204;2022-08-03T13:14:45;99182.81;;;35.48;29.62
29877;BME280;16750;49.002;9.204;2022-08-03T13:17:11;99182.47;;;35.36;29.79
29877;BME280;16750;49.002;9.204;2022-08-03T13:19:37;99172.38;;;35.23;29.97
29877;BME280;16750;49.002;9.204;2022-08-03T13:22:13;99171.81;;;35.33;29.52
29877;BME280;16750;49.002;9.204;2022-08-03T13:24:39;99162.16;;;35.28;30.24
29877;BME280;16750;49.002;9.204;2022-08-03T13:27:05;99156.78;;;35.44;30.36
29877;BME280;16750;49.002;9.204;2022-08-03T13:29:32;99164.56;;;35.67;29.90
29877;BME280;16750;49.002;9.204;2022-08-03T13:31:58;99163.75;;;35.83;29.72
29877;BME280;16750;49.002;9.204;2022-08-03T13:34:24;99165.13;;;35.90;29.84
29877;BME280;16750;49.002;9.204;2022-08-03T13:36:50;99163.56;;;35.86;29.75
29877;BME280;16750;49.002;9.204;2022-08-03T13:39:15;99162.59;;;35.87;29.78
29877;BME280;16750;49.002;9.204;2022-08-03T13:41:41;99163.41;;;35.89;28.93